createdAt,value
2023-03-06T00:00:54.508Z,20.63
2023-03-06T00:01:56.205Z,24.77
2023-03-06T00:02:58.168Z,18.83
2023-03-06T00:03:59.955Z,22.83
2023-03-06T00:05:01.727Z,21.67
2023-03-06T00:06:03.704Z,21.93
2023-03-06T00:07:05.580Z,21.70
2023-03-06T00:08:07.305Z,24.67
2023-03-06T00:09:09.848Z,20.27
2023-03-06T00:10:17.455Z,24.63
2023-03-06T00:11:19.256Z,20.30
2023-03-06T00:12:21.023Z,20.20
2023-03-06T00:13:22.945Z,20.60
2023-03-06T00:14:24.699Z,20.00
2023-03-06T00:15:27.698Z,22.63
2023-03-06T00:16:29.602Z,23.80
2023-03-06T00:17:31.384Z,20.83
2023-03-06T00:18:33.802Z,24.00
2023-03-06T00:19:35.488Z,21.37
2023-03-06T00:20:39.348Z,22.00
2023-03-06T00:21:42.032Z,20.97
2023-03-06T00:22:44.116Z,24.67
2023-03-06T00:23:45.910Z,22.13
2023-03-06T00:31:55.973Z,22.27
2023-03-06T00:32:57.735Z,24.50
2023-03-06T00:33:59.479Z,20.50
2023-03-06T00:35:01.695Z,22.23
2023-03-06T00:36:06.794Z,18.17
2023-03-06T00:37:08.501Z,24.37
2023-03-06T00:38:14.884Z,21.57
2023-03-06T00:39:16.658Z,22.60
2023-03-06T00:40:20.877Z,21.17
2023-03-06T00:41:22.678Z,18.33
2023-03-06T00:42:24.814Z,22.40
2023-03-06T00:43:26.524Z,22.80
2023-03-06T00:44:28.233Z,22.80
2023-03-06T00:45:30.052Z,22.70
2023-03-06T00:46:31.897Z,24.07
2023-03-06T00:47:33.756Z,20.83
2023-03-06T00:48:35.516Z,21.20
2023-03-06T00:49:37.653Z,20.23
2023-03-06T00:50:39.444Z,21.80
2023-03-06T00:51:41.151Z,22.17
2023-03-06T00:52:42.939Z,21.10
2023-03-06T00:53:44.661Z,19.13
2023-03-06T00:54:46.452Z,24.00
2023-03-06T00:55:49.479Z,20.80
2023-03-06T00:56:51.336Z,20.30
2023-03-06T00:57:53.090Z,19.80
2023-03-06T00:58:54.777Z,21.83
2023-03-06T00:59:56.564Z,22.47
2023-03-06T01:00:58.357Z,22.30
2023-03-06T01:02:00.161Z,21.53
2023-03-06T01:03:01.977Z,19.57
2023-03-06T01:04:03.851Z,19.47
2023-03-06T01:05:06.760Z,21.13
2023-03-06T01:06:08.603Z,21.57
2023-03-06T01:07:10.567Z,19.27
2023-03-06T01:08:12.315Z,22.03
2023-03-06T01:09:14.047Z,20.73
2023-03-06T01:10:15.833Z,22.33
2023-03-06T01:11:17.644Z,20.73
2023-03-06T01:12:21.357Z,19.50
2023-03-06T01:13:24.645Z,21.17
2023-03-06T01:14:26.959Z,19.57
2023-03-06T01:15:28.688Z,24.00
2023-03-06T01:16:30.614Z,20.27
2023-03-06T01:17:32.424Z,22.07
2023-03-06T01:18:34.189Z,20.07
2023-03-06T01:19:35.970Z,20.20
2023-03-06T01:20:37.679Z,17.77
2023-03-06T01:21:39.449Z,18.47
2023-03-06T01:22:41.211Z,21.17
2023-03-06T01:23:43.238Z,23.73
2023-03-06T01:24:44.937Z,20.83
2023-03-06T01:25:46.639Z,20.00
2023-03-06T01:26:48.323Z,23.47
2023-03-06T01:27:50.045Z,21.67
2023-03-06T01:28:51.776Z,19.63
2023-03-06T01:29:53.474Z,23.43
2023-03-06T01:30:55.481Z,19.83
2023-03-06T01:31:57.253Z,24.67
2023-03-06T01:32:59.261Z,20.20
2023-03-06T01:34:01.021Z,19.27
2023-03-06T01:35:03.912Z,24.30
2023-03-06T01:36:08.213Z,21.10
2023-03-06T01:37:10.011Z,23.07
2023-03-06T01:38:12.616Z,21.57
2023-03-06T01:39:14.277Z,17.67
2023-03-06T01:40:16.023Z,20.23
2023-03-06T01:41:18.233Z,22.90
2023-03-06T01:42:19.899Z,20.73
2023-03-06T01:43:25.253Z,21.97
2023-03-06T01:44:27.005Z,19.00
2023-03-06T01:45:31.582Z,19.70
2023-03-06T01:46:41.970Z,19.50
2023-03-06T01:47:44.833Z,21.70
2023-03-06T01:48:47.683Z,20.07
2023-03-06T01:49:49.459Z,20.70
2023-03-06T01:50:54.140Z,24.80
2023-03-06T01:52:00.221Z,22.83
2023-03-06T01:53:02.055Z,21.70
2023-03-06T01:54:08.747Z,18.10
2023-03-06T01:55:15.512Z,22.23
2023-03-06T01:56:17.666Z,20.20
2023-03-06T01:57:23.791Z,21.93
2023-03-06T01:58:25.574Z,20.33
2023-03-06T01:59:28.483Z,25.20
2023-03-06T02:00:31.396Z,23.60
2023-03-06T02:01:33.769Z,24.63
2023-03-06T02:02:36.534Z,21.47
2023-03-06T02:03:40.231Z,21.07
2023-03-06T02:04:42.649Z,18.93
2023-03-06T02:05:44.612Z,23.97
2023-03-06T02:06:47.476Z,22.03
2023-03-06T02:07:50.973Z,19.67
2023-03-06T02:08:53.085Z,21.97
2023-03-06T02:09:54.753Z,25.27
2023-03-06T02:11:13.026Z,22.30
2023-03-06T02:12:19.018Z,23.33
2023-03-06T02:13:20.738Z,20.77
2023-03-06T02:14:22.763Z,20.67
2023-03-06T02:15:27.123Z,22.03
2023-03-06T02:16:31.707Z,23.37
2023-03-06T02:17:34.824Z,19.10
2023-03-06T02:18:37.293Z,20.97
2023-03-06T02:19:42.085Z,23.87
2023-03-06T02:20:50.748Z,21.37
2023-03-06T02:21:52.607Z,22.43
2023-03-06T02:23:36.910Z,21.50
2023-03-06T02:24:44.711Z,20.00
2023-03-06T02:25:49.563Z,23.80
2023-03-06T02:26:52.674Z,23.17
2023-03-06T02:27:54.435Z,20.27
2023-03-06T02:28:58.528Z,22.37
2023-03-06T02:30:00.294Z,22.67
2023-03-06T02:31:02.167Z,22.30
2023-03-06T02:32:04.882Z,24.47
2023-03-06T02:33:06.630Z,22.13
2023-03-06T02:34:14.695Z,22.73
2023-03-06T02:35:55.643Z,21.83
2023-03-06T02:37:02.920Z,24.27
2023-03-06T02:38:14.768Z,20.40
2023-03-06T02:39:19.627Z,19.70
2023-03-06T02:40:22.499Z,16.80
2023-03-06T02:41:25.525Z,19.90
2023-03-06T02:42:28.863Z,25.00
2023-03-06T02:43:34.059Z,21.83
2023-03-06T02:44:36.655Z,21.53
2023-03-06T02:45:45.286Z,22.40
2023-03-06T02:46:47.162Z,24.60
2023-03-06T02:47:49.044Z,21.33
2023-03-06T02:48:50.719Z,21.93
2023-03-06T02:49:52.579Z,22.00
2023-03-06T02:50:54.333Z,22.33
2023-03-06T02:51:56.031Z,20.67
2023-03-06T02:52:57.991Z,19.43
2023-03-06T02:53:59.671Z,20.73
2023-03-06T02:55:01.361Z,21.30
2023-03-06T02:56:03.206Z,21.83
2023-03-06T02:57:05.103Z,19.27
2023-03-06T02:58:07.632Z,20.83
2023-03-06T02:59:09.357Z,20.27
2023-03-06T03:00:12.547Z,20.40
2023-03-06T03:01:14.433Z,19.07
2023-03-06T03:02:16.211Z,21.93
2023-03-06T03:03:18.247Z,20.70
2023-03-06T03:04:20.523Z,16.57
2023-03-06T03:05:22.628Z,21.57
2023-03-06T03:06:24.333Z,17.60
2023-03-06T03:07:26.036Z,21.80
2023-03-06T03:08:28.695Z,23.80
2023-03-06T03:09:36.650Z,18.97
2023-03-06T03:10:38.411Z,22.33
2023-03-06T03:11:40.531Z,20.63
2023-03-06T03:12:42.835Z,17.43
2023-03-06T03:13:44.692Z,21.47
2023-03-06T03:14:46.383Z,22.63
2023-03-06T03:16:13.997Z,22.00
2023-03-06T03:17:15.950Z,21.20
2023-03-06T03:18:17.655Z,21.77
2023-03-06T03:19:19.375Z,17.13
2023-03-06T03:20:23.007Z,20.70
2023-03-06T03:21:24.720Z,20.50
2023-03-06T03:22:26.582Z,21.80
2023-03-06T03:23:28.325Z,18.70
2023-03-06T03:24:30.034Z,23.73
2023-03-06T03:25:31.833Z,21.30
2023-03-06T03:26:33.495Z,22.20
2023-03-06T03:27:35.232Z,21.30
2023-03-06T03:28:37.497Z,21.13
2023-03-06T03:29:39.786Z,19.10
2023-03-06T03:30:42.464Z,21.67
2023-03-06T03:31:44.276Z,20.87
2023-03-06T03:32:45.966Z,22.20
2023-03-06T03:33:47.807Z,22.77
2023-03-06T03:34:51.632Z,20.93
2023-03-06T03:35:57.946Z,20.50
2023-03-06T03:36:59.725Z,20.10
2023-03-06T03:38:01.568Z,23.47
2023-03-06T03:39:04.120Z,19.33
2023-03-06T03:40:07.233Z,19.17
2023-03-06T03:41:09.105Z,22.13
2023-03-06T03:42:10.935Z,23.73
2023-03-06T03:43:12.706Z,18.43
2023-03-06T03:44:14.556Z,22.47
2023-03-06T03:45:16.295Z,18.90
2023-03-06T03:46:18.141Z,20.23
2023-03-06T03:47:19.925Z,24.37
2023-03-06T03:48:22.015Z,19.03
2023-03-06T03:49:23.906Z,19.63
2023-03-06T03:50:25.814Z,19.73
2023-03-06T03:51:27.622Z,19.27
2023-03-06T03:52:29.365Z,19.80
2023-03-06T03:53:31.079Z,21.70
2023-03-06T03:54:32.847Z,19.23
2023-03-06T03:55:34.583Z,17.33
2023-03-06T03:56:36.397Z,17.97
2023-03-06T03:57:39.274Z,19.50
2023-03-06T03:58:41.028Z,23.50
2023-03-06T03:59:42.755Z,20.67
2023-03-06T04:00:44.698Z,20.80
2023-03-06T04:01:46.513Z,17.97
2023-03-06T04:02:48.328Z,19.80
2023-03-06T04:03:50.043Z,22.47
2023-03-06T04:04:51.779Z,19.47
2023-03-06T04:05:58.035Z,17.53
2023-03-06T04:07:00.782Z,21.93
2023-03-06T04:08:03.178Z,19.13
2023-03-06T04:09:05.597Z,19.80
2023-03-06T04:10:09.324Z,21.07
2023-03-06T04:11:11.948Z,21.87
2023-03-06T04:12:13.788Z,19.30
2023-03-06T04:13:15.552Z,18.07
2023-03-06T04:14:17.266Z,22.60
2023-03-06T04:15:19.034Z,19.80
2023-03-06T04:16:20.765Z,21.60
2023-03-06T04:17:22.583Z,19.03
2023-03-06T04:18:24.430Z,20.90
2023-03-06T04:19:26.192Z,18.67
2023-03-06T04:20:28.647Z,20.37
2023-03-06T04:21:30.416Z,19.03
2023-03-06T04:22:32.181Z,16.50
2023-03-06T04:23:34.026Z,21.27
2023-03-06T04:24:35.761Z,19.73
2023-03-06T04:25:37.646Z,20.67
2023-03-06T04:26:39.540Z,19.87
2023-03-06T04:27:41.278Z,21.03
2023-03-06T04:28:42.952Z,20.40
2023-03-06T04:29:44.690Z,19.47
2023-03-06T04:30:46.467Z,19.00
2023-03-06T04:31:48.225Z,19.83
2023-03-06T04:32:50.173Z,20.57
2023-03-06T04:33:51.894Z,18.10
2023-03-06T04:34:53.583Z,16.37
2023-03-06T04:35:55.421Z,16.90
2023-03-06T04:36:57.196Z,16.83
2023-03-06T04:37:59.295Z,18.20
2023-03-06T04:39:01.757Z,20.33
2023-03-06T04:40:04.321Z,17.13
2023-03-06T04:41:06.256Z,19.23
2023-03-06T04:42:08.184Z,17.97
2023-03-06T04:43:09.844Z,19.17
2023-03-06T04:44:11.627Z,16.80
2023-03-06T04:45:13.542Z,19.37
2023-03-06T04:46:15.446Z,17.67
2023-03-06T04:47:19.108Z,20.33
2023-03-06T04:48:21.012Z,19.40
2023-03-06T04:49:22.772Z,18.73
2023-03-06T04:50:25.951Z,20.20
2023-03-06T04:51:27.803Z,17.33
2023-03-06T04:52:29.496Z,20.80
2023-03-06T04:53:32.738Z,21.53
2023-03-06T04:54:34.580Z,17.47
2023-03-06T04:55:36.573Z,19.33
2023-03-06T04:56:38.349Z,17.80
2023-03-06T04:57:41.407Z,18.37
2023-03-06T04:58:44.576Z,17.87
2023-03-06T04:59:46.306Z,16.03
2023-03-06T05:00:48.077Z,17.07
2023-03-06T05:01:49.933Z,20.93
2023-03-06T05:02:52.486Z,18.77
2023-03-06T05:03:54.277Z,18.80
2023-03-06T05:04:56.111Z,18.20
2023-03-06T05:05:58.790Z,18.20
2023-03-06T05:07:00.593Z,16.07
2023-03-06T05:08:02.310Z,21.93
2023-03-06T05:09:04.183Z,20.77
2023-03-06T05:10:06.767Z,18.40
2023-03-06T05:11:08.588Z,20.33
2023-03-06T05:12:10.345Z,17.37
2023-03-06T05:13:12.283Z,20.10
2023-03-06T05:14:14.033Z,16.33
2023-03-06T05:15:16.074Z,18.53
2023-03-06T05:16:17.931Z,19.63
2023-03-06T05:17:20.899Z,18.43
2023-03-06T05:18:22.677Z,19.03
2023-03-06T05:19:24.423Z,18.10
2023-03-06T05:20:26.813Z,19.47
2023-03-06T05:21:28.551Z,17.40
2023-03-06T05:22:30.270Z,19.93
2023-03-06T05:23:33.856Z,17.50
2023-03-06T05:24:35.576Z,17.57
2023-03-06T05:25:42.052Z,15.80
2023-03-06T05:26:43.741Z,16.10
2023-03-06T05:27:45.516Z,18.73
2023-03-06T05:28:47.231Z,18.47
2023-03-06T05:29:49.038Z,17.43
2023-03-06T05:30:50.714Z,17.07
2023-03-06T05:31:52.581Z,17.47
2023-03-06T05:32:54.507Z,15.70
2023-03-06T05:33:58.036Z,19.50
2023-03-06T05:34:59.802Z,17.50
2023-03-06T05:36:02.142Z,15.57
2023-03-06T05:37:03.954Z,16.03
2023-03-06T05:38:05.705Z,17.03
2023-03-06T05:39:07.581Z,19.43
2023-03-06T05:40:09.970Z,17.37
2023-03-06T05:41:13.281Z,16.77
2023-03-06T05:42:15.077Z,20.50
2023-03-06T05:43:16.815Z,18.40
2023-03-06T05:44:18.481Z,18.80
2023-03-06T05:45:20.320Z,19.00
2023-03-06T05:46:22.136Z,18.13
2023-03-06T05:47:23.825Z,15.93
2023-03-06T05:48:25.862Z,14.87
2023-03-06T05:49:32.465Z,14.73
2023-03-06T05:50:34.304Z,18.47
2023-03-06T05:51:36.094Z,16.07
2023-03-06T05:52:39.768Z,15.27
2023-03-06T05:53:41.497Z,16.93
2023-03-06T05:54:43.465Z,15.83
2023-03-06T05:55:45.210Z,13.70
2023-03-06T05:56:46.954Z,14.20
2023-03-06T05:57:48.794Z,18.37
2023-03-06T05:58:51.608Z,17.47
2023-03-06T05:59:53.461Z,16.37
2023-03-06T06:00:55.289Z,15.87
2023-03-06T06:01:57.708Z,18.03
2023-03-06T06:03:01.383Z,16.33
2023-03-06T06:04:03.557Z,16.20
2023-03-06T06:05:05.628Z,18.17
2023-03-06T06:06:09.312Z,16.63
2023-03-06T06:07:15.074Z,16.37
2023-03-06T06:08:17.204Z,16.10
2023-03-06T06:09:18.989Z,16.40
2023-03-06T06:10:20.672Z,16.07
2023-03-06T06:11:22.397Z,16.97
2023-03-06T06:12:24.237Z,15.37
2023-03-06T06:13:26.071Z,18.60
2023-03-06T06:14:28.956Z,14.57
2023-03-06T06:15:30.954Z,16.73
2023-03-06T06:16:32.819Z,18.17
2023-03-06T06:17:34.584Z,16.70
2023-03-06T06:18:36.262Z,16.20
2023-03-06T06:19:38.602Z,17.37
2023-03-06T06:20:40.392Z,13.87
2023-03-06T06:21:42.129Z,17.50
2023-03-06T06:22:43.895Z,17.47
2023-03-06T06:23:46.191Z,15.67
2023-03-06T06:24:47.905Z,15.37
2023-03-06T06:25:49.862Z,16.00
2023-03-06T06:26:52.977Z,16.93
2023-03-06T06:27:56.546Z,14.80
2023-03-06T06:29:00.107Z,15.73
2023-03-06T06:30:02.153Z,15.87
2023-03-06T06:31:13.664Z,14.30
2023-03-06T06:32:15.393Z,17.30
2023-03-06T06:33:17.127Z,23.60
2023-03-06T06:34:19.586Z,25.30
2023-03-06T06:35:21.608Z,22.03
2023-03-06T06:36:23.302Z,19.03
2023-03-06T06:37:26.082Z,14.47
2023-03-06T06:38:27.796Z,15.77
2023-03-06T06:39:29.747Z,19.97
2023-03-06T06:40:31.461Z,19.87
2023-03-06T06:41:53.025Z,20.90
2023-03-06T06:42:55.400Z,21.00
2023-03-06T06:43:59.005Z,20.57
2023-03-06T06:45:00.832Z,21.87
2023-03-06T06:46:31.505Z,22.47
2023-03-06T06:47:25.628Z,21.37
2023-03-06T06:48:27.542Z,20.27
2023-03-06T06:49:29.384Z,18.33
2023-03-06T06:50:31.156Z,18.30
2023-03-06T06:51:34.373Z,20.20
2023-03-06T06:52:36.075Z,21.97
2023-03-06T06:53:37.841Z,17.47
2023-03-06T06:54:39.532Z,24.73
2023-03-06T06:55:41.262Z,24.83
2023-03-06T06:56:43.025Z,20.03
2023-03-06T06:57:44.765Z,25.73
2023-03-06T06:58:46.486Z,21.03
2023-03-06T06:59:48.283Z,21.37
2023-03-06T07:00:50.059Z,18.67
2023-03-06T07:01:52.719Z,21.70
2023-03-06T07:02:54.502Z,24.47
2023-03-06T07:03:56.938Z,17.10
2023-03-06T07:05:06.113Z,18.23
2023-03-06T07:06:07.913Z,15.77
2023-03-06T07:07:09.814Z,19.10
2023-03-06T07:08:11.556Z,18.70
2023-03-06T07:09:14.081Z,16.97
2023-03-06T07:10:16.018Z,15.43
2023-03-06T07:11:18.799Z,19.23
2023-03-06T07:12:20.564Z,21.67
2023-03-06T07:13:22.353Z,24.63
2023-03-06T07:14:24.554Z,19.00
2023-03-06T07:15:27.119Z,15.67
2023-03-06T07:16:28.923Z,19.70
2023-03-06T07:17:30.703Z,15.77
2023-03-06T07:18:32.574Z,17.17
2023-03-06T07:19:34.334Z,20.20
2023-03-06T07:20:36.389Z,17.10
2023-03-06T07:21:38.057Z,14.53
2023-03-06T07:22:50.439Z,22.43
2023-03-06T07:23:54.252Z,18.40
2023-03-06T07:24:56.023Z,20.70
2023-03-06T07:25:58.175Z,18.83
2023-03-06T07:26:59.902Z,22.40
2023-03-06T07:28:01.736Z,22.57
2023-03-06T07:29:05.037Z,19.93
2023-03-06T07:30:08.018Z,16.77
2023-03-06T07:31:11.504Z,20.83
2023-03-06T07:32:13.305Z,14.63
2023-03-06T07:33:15.753Z,23.50
2023-03-06T07:34:17.467Z,16.37
2023-03-06T07:35:20.840Z,14.20
2023-03-06T07:36:24.262Z,21.03
2023-03-06T07:37:25.997Z,21.83
2023-03-06T07:38:27.711Z,15.37
2023-03-06T07:39:30.211Z,16.93
2023-03-06T07:40:31.928Z,21.10
2023-03-06T07:41:34.165Z,21.23
2023-03-06T07:42:36.049Z,17.50
2023-03-06T07:43:37.728Z,16.53
2023-03-06T07:44:39.524Z,20.07
2023-03-06T07:45:41.231Z,17.43
2023-03-06T07:46:42.967Z,16.73
2023-03-06T07:47:44.937Z,17.37
2023-03-06T07:48:46.621Z,17.80
2023-03-06T07:49:48.322Z,20.40
2023-03-06T07:51:17.288Z,17.00
2023-03-06T07:52:19.090Z,16.47
2023-03-06T07:53:22.615Z,18.93
2023-03-06T07:54:24.670Z,14.70
2023-03-06T07:55:26.592Z,17.70
2023-03-06T07:56:28.296Z,14.10
2023-03-06T07:57:30.004Z,14.43
2023-03-06T07:58:31.707Z,14.30
2023-03-06T07:59:33.513Z,14.07
2023-03-06T08:00:35.332Z,17.33
2023-03-06T08:01:39.324Z,12.67
2023-03-06T08:02:42.089Z,15.57
2023-03-06T08:03:44.384Z,15.20
2023-03-06T08:04:53.367Z,12.57
2023-03-06T08:05:55.074Z,13.13
2023-03-06T08:06:59.564Z,14.97
2023-03-06T08:08:01.342Z,15.17
2023-03-06T08:09:03.881Z,14.53
2023-03-06T08:10:06.227Z,13.47
2023-03-06T08:11:09.532Z,12.87
2023-03-06T08:12:11.375Z,12.60
2023-03-06T08:13:13.122Z,17.13
2023-03-06T08:14:14.791Z,13.97
2023-03-06T08:15:16.569Z,12.83
2023-03-06T08:16:21.140Z,13.83
2023-03-06T08:17:23.276Z,13.97
2023-03-06T08:18:25.027Z,10.80
2023-03-06T08:19:26.762Z,12.47
2023-03-06T08:20:28.474Z,11.90
2023-03-06T08:21:30.253Z,12.67
2023-03-06T08:22:32.114Z,11.57
2023-03-06T08:23:35.055Z,11.03
2023-03-06T08:24:37.091Z,11.77
2023-03-06T08:25:38.873Z,12.87
2023-03-06T08:26:40.605Z,14.07
2023-03-06T08:27:42.332Z,11.30
2023-03-06T08:28:44.653Z,15.57
2023-03-06T08:29:46.378Z,10.13
2023-03-06T08:30:48.041Z,13.67
2023-03-06T08:31:49.866Z,18.07
2023-03-06T08:32:51.648Z,9.67
2023-03-06T08:33:54.398Z,10.63
2023-03-06T08:34:56.193Z,9.17
2023-03-06T08:35:58.485Z,10.43
2023-03-06T08:37:01.495Z,10.30
2023-03-06T08:38:03.243Z,10.10
2023-03-06T08:39:05.793Z,15.90
2023-03-06T08:40:08.391Z,11.10
2023-03-06T08:41:10.109Z,9.50
2023-03-06T08:42:11.849Z,10.87
2023-03-06T08:43:14.289Z,9.10
2023-03-06T08:44:16.185Z,13.00
2023-03-06T08:45:17.990Z,8.97
2023-03-06T08:46:21.921Z,7.87
2023-03-06T08:47:23.600Z,8.63
2023-03-06T08:48:25.840Z,9.83
2023-03-06T08:49:27.593Z,10.17
2023-03-06T08:50:29.255Z,7.83
2023-03-06T08:51:31.102Z,10.40
2023-03-06T08:52:32.774Z,9.03
2023-03-06T08:53:43.099Z,8.67
2023-03-06T08:54:45.931Z,9.10
2023-03-06T08:55:47.866Z,8.00
2023-03-06T08:56:49.577Z,8.10
2023-03-06T08:57:51.259Z,8.70
2023-03-06T08:58:53.413Z,9.20
2023-03-06T08:59:55.224Z,8.10
2023-03-06T09:00:57.835Z,9.30
2023-03-06T09:01:59.886Z,7.27
2023-03-06T09:03:01.911Z,7.33
2023-03-06T09:04:08.942Z,9.10
2023-03-06T09:05:11.798Z,9.97
2023-03-06T09:06:14.720Z,7.10
2023-03-06T09:07:16.438Z,10.50
2023-03-06T09:08:18.399Z,9.77
2023-03-06T09:09:20.143Z,8.27
2023-03-06T09:10:24.789Z,8.53
2023-03-06T09:11:27.635Z,8.67
2023-03-06T09:12:32.621Z,8.10
2023-03-06T09:13:39.364Z,7.43
2023-03-06T09:14:41.170Z,7.90
2023-03-06T09:15:43.021Z,8.23
2023-03-06T09:16:44.791Z,7.60
2023-03-06T09:17:47.430Z,7.40
2023-03-06T09:18:52.748Z,8.63
2023-03-06T09:19:54.568Z,8.77
2023-03-06T09:20:56.554Z,6.83
2023-03-06T09:22:00.412Z,8.17
2023-03-06T09:23:02.267Z,9.90
2023-03-06T09:24:04.106Z,8.13
2023-03-06T09:25:06.648Z,8.87
2023-03-06T09:26:08.629Z,8.73
2023-03-06T09:27:10.416Z,7.67
2023-03-06T09:28:12.462Z,8.40
2023-03-06T09:29:16.258Z,7.83
2023-03-06T09:30:18.977Z,8.70
2023-03-06T09:31:20.927Z,8.57
2023-03-06T09:32:23.832Z,9.93
2023-03-06T09:33:26.745Z,8.03
2023-03-06T09:34:28.518Z,8.17
2023-03-06T09:35:30.290Z,7.87
2023-03-06T09:36:37.911Z,6.90
2023-03-06T09:37:47.525Z,9.17
2023-03-06T09:38:49.988Z,7.10
2023-03-06T09:39:51.784Z,8.17
2023-03-06T09:41:06.058Z,8.00
2023-03-06T09:42:08.950Z,8.50
2023-03-06T09:43:21.420Z,7.50
2023-03-06T09:44:32.098Z,8.43
2023-03-06T09:45:37.254Z,7.43
2023-03-06T09:47:01.360Z,7.27
2023-03-06T09:48:13.437Z,10.30
2023-03-06T09:49:29.187Z,7.90
2023-03-06T09:50:51.079Z,6.57
2023-03-06T09:52:10.353Z,6.97
2023-03-06T09:53:21.370Z,7.63
2023-03-06T09:54:42.665Z,9.03
2023-03-06T09:55:51.602Z,6.53
2023-03-06T09:56:53.318Z,6.33
2023-03-06T09:58:02.565Z,6.97
2023-03-06T09:59:25.239Z,7.73
2023-03-06T10:00:36.519Z,8.97
2023-03-06T10:01:42.616Z,8.60
2023-03-06T10:03:00.639Z,6.50
2023-03-06T10:04:30.366Z,7.57
2023-03-06T10:05:50.129Z,6.63
2023-03-06T10:07:04.463Z,8.87
2023-03-06T10:08:38.300Z,6.90
2023-03-06T10:10:01.672Z,7.97
2023-03-06T10:11:07.271Z,7.80
2023-03-06T10:12:33.792Z,8.93
2023-03-06T10:14:08.337Z,7.50
2023-03-06T10:15:18.125Z,7.90
2023-03-06T10:16:28.254Z,6.90
2023-03-06T10:17:36.177Z,7.13
2023-03-06T10:18:39.062Z,7.53
2023-03-06T10:19:42.250Z,6.53
2023-03-06T10:20:56.484Z,7.37
2023-03-06T10:22:16.255Z,6.60
2023-03-06T10:23:29.753Z,7.33
2023-03-06T10:24:50.970Z,8.27
2023-03-06T10:26:03.322Z,7.13
2023-03-06T10:27:16.723Z,6.40
2023-03-06T10:28:25.125Z,6.43
2023-03-06T10:30:01.235Z,6.27
2023-03-06T10:31:23.405Z,6.33
2023-03-06T10:32:46.199Z,6.10
2023-03-06T10:33:57.472Z,6.67
2023-03-06T10:35:01.662Z,6.90
2023-03-06T10:36:04.655Z,7.13
2023-03-06T10:37:21.312Z,6.87
2023-03-06T10:38:24.583Z,5.63
2023-03-06T10:39:28.364Z,6.60
2023-03-06T10:40:38.415Z,5.83
2023-03-06T10:41:40.129Z,7.30
2023-03-06T10:42:41.788Z,7.10
2023-03-06T10:44:06.743Z,6.47
2023-03-06T10:45:14.886Z,6.57
2023-03-06T10:46:31.477Z,6.90
2023-03-06T10:47:37.633Z,6.23
2023-03-06T10:48:42.322Z,6.47
2023-03-06T10:49:58.412Z,6.97
2023-03-06T10:51:20.013Z,6.63
2023-03-06T10:52:22.641Z,9.43
2023-03-06T10:53:29.156Z,7.20
2023-03-06T10:54:37.616Z,7.27
2023-03-06T10:55:39.315Z,6.70
2023-03-06T10:56:44.168Z,6.53
2023-03-06T10:57:45.877Z,7.43
2023-03-06T10:58:47.877Z,8.07
2023-03-06T11:00:06.030Z,8.23
2023-03-06T11:01:07.721Z,8.83
2023-03-06T11:02:38.416Z,20.17
2023-03-06T11:03:41.100Z,9.60
2023-03-06T11:04:51.248Z,8.20
2023-03-06T11:06:32.736Z,5.97
2023-03-06T11:07:36.254Z,6.67
2023-03-06T11:08:38.997Z,6.47
2023-03-06T11:09:59.561Z,7.77
2023-03-06T11:11:08.457Z,5.70
2023-03-06T11:12:32.249Z,6.67
2023-03-06T11:13:37.567Z,7.43
2023-03-06T11:14:39.320Z,5.53
2023-03-06T11:15:54.494Z,7.33
2023-03-06T11:16:56.236Z,6.97
2023-03-06T11:18:09.918Z,7.30
2023-03-06T11:19:26.435Z,7.20
2023-03-06T11:20:51.583Z,8.83
2023-03-06T11:22:04.878Z,9.03
2023-03-06T11:23:07.792Z,7.87
2023-03-06T11:24:17.210Z,8.63
2023-03-06T11:25:21.433Z,8.50
2023-03-06T11:26:38.380Z,7.70
2023-03-06T11:27:43.784Z,6.57
2023-03-06T11:29:17.547Z,7.23
2023-03-06T11:30:24.448Z,6.60
2023-03-06T11:31:32.701Z,6.00
2023-03-06T11:32:50.363Z,6.67
2023-03-06T11:33:58.838Z,7.33
2023-03-06T11:35:10.168Z,8.30
2023-03-06T11:36:15.412Z,9.63
2023-03-06T11:37:49.693Z,6.63
2023-03-06T11:38:53.857Z,9.03
2023-03-06T11:40:10.845Z,7.07
2023-03-06T11:41:44.235Z,8.37
2023-03-06T11:42:54.323Z,7.20
2023-03-06T11:44:04.157Z,7.70
2023-03-06T11:45:27.014Z,6.90
2023-03-06T11:46:39.724Z,7.90
2023-03-06T11:47:46.596Z,8.33
2023-03-06T11:49:14.130Z,7.73
2023-03-06T11:50:21.730Z,7.17
2023-03-06T11:51:31.470Z,7.23
2023-03-06T11:53:01.692Z,12.10
2023-03-06T11:54:03.804Z,7.10
2023-03-06T11:55:08.626Z,9.70
2023-03-06T11:56:19.392Z,8.83
2023-03-06T11:57:35.129Z,10.30
2023-03-06T11:58:58.473Z,7.30
2023-03-06T12:00:32.843Z,7.20
2023-03-06T12:02:02.464Z,7.00
2023-03-06T12:03:19.860Z,8.37
2023-03-06T12:04:54.231Z,7.50
2023-03-06T12:06:13.494Z,7.70
2023-03-06T12:07:34.877Z,11.13
2023-03-06T12:08:49.955Z,7.03
2023-03-06T12:10:17.924Z,8.13
2023-03-06T12:11:52.604Z,6.77
2023-03-06T12:13:19.280Z,8.37
2023-03-06T12:14:33.899Z,7.10
2023-03-06T12:15:54.269Z,8.10
2023-03-06T12:17:07.885Z,7.90
2023-03-06T12:18:33.190Z,8.77
2023-03-06T12:19:53.371Z,11.00
2023-03-06T12:21:01.050Z,8.87
2023-03-06T12:22:36.445Z,11.20
2023-03-06T12:24:12.280Z,9.40
2023-03-06T12:25:50.288Z,7.80
2023-03-06T12:27:10.661Z,6.40
2023-03-06T12:28:31.916Z,10.77
2023-03-06T12:30:11.091Z,11.00
2023-03-06T12:32:00.384Z,7.27
2023-03-06T12:33:16.888Z,9.00
2023-03-06T12:34:45.737Z,8.27
2023-03-06T12:35:50.298Z,8.57
2023-03-06T12:37:13.957Z,7.13
2023-03-06T12:38:34.339Z,6.70
2023-03-06T12:39:54.384Z,11.63
2023-03-06T12:41:20.804Z,8.57
2023-03-06T12:42:48.338Z,6.13
2023-03-06T12:44:10.973Z,7.50
2023-03-06T12:45:18.708Z,7.93
2023-03-06T12:46:25.983Z,6.47
2023-03-06T12:47:30.761Z,8.30
2023-03-06T12:48:36.527Z,8.53
2023-03-06T12:49:42.222Z,6.93
2023-03-06T12:50:44.864Z,12.23
2023-03-06T12:51:47.060Z,7.67
2023-03-06T12:52:49.476Z,7.00
2023-03-06T12:53:51.849Z,7.50
2023-03-06T12:54:58.506Z,8.77
2023-03-06T12:56:02.476Z,5.63
2023-03-06T12:57:07.956Z,6.90
2023-03-06T12:58:28.427Z,8.50
2023-03-06T12:59:47.253Z,7.83
2023-03-06T13:01:06.991Z,7.50
2023-03-06T13:02:33.081Z,7.90
2023-03-06T13:03:59.973Z,6.83
2023-03-06T13:05:35.881Z,8.50
2023-03-06T13:06:55.635Z,8.10
2023-03-06T13:08:16.315Z,8.10
2023-03-06T13:09:22.401Z,8.00
2023-03-06T13:10:33.810Z,7.43
2023-03-06T13:11:58.722Z,7.30
2023-03-06T13:13:29.359Z,9.53
2023-03-06T13:14:37.564Z,8.47
2023-03-06T13:15:42.995Z,10.77
2023-03-06T13:16:44.888Z,7.83
2023-03-06T13:17:46.731Z,7.13
2023-03-06T13:19:16.187Z,9.03
2023-03-06T13:20:56.805Z,8.47
2023-03-06T13:21:58.469Z,12.67
2023-03-06T13:23:28.994Z,7.83
2023-03-06T13:24:37.569Z,6.93
2023-03-06T13:25:50.068Z,8.43
2023-03-06T13:26:55.938Z,7.03
2023-03-06T13:27:57.571Z,9.10
2023-03-06T13:28:59.336Z,16.53
2023-03-06T13:30:27.213Z,6.73
2023-03-06T13:31:36.441Z,6.23
2023-03-06T13:32:38.262Z,7.87
2023-03-06T13:33:40.062Z,5.97
2023-03-06T13:34:48.425Z,8.03
2023-03-06T13:35:55.570Z,7.20
2023-03-06T13:37:28.108Z,6.77
2023-03-06T13:38:40.039Z,5.57
2023-03-06T13:39:59.494Z,7.33
2023-03-06T13:41:35.698Z,9.67
2023-03-06T13:43:09.364Z,6.80
2023-03-06T13:44:41.817Z,7.13
2023-03-06T13:45:44.518Z,6.47
2023-03-06T13:47:06.291Z,7.70
2023-03-06T13:48:44.697Z,6.90
2023-03-06T13:49:48.788Z,7.53
2023-03-06T13:50:52.464Z,6.50
2023-03-06T13:51:54.146Z,7.30
2023-03-06T13:53:20.047Z,9.33
2023-03-06T13:54:24.887Z,14.57
2023-03-06T13:55:58.882Z,8.43
2023-03-06T13:57:21.735Z,6.27
2023-03-06T13:58:30.933Z,6.63
2023-03-06T14:00:13.646Z,7.43
2023-03-06T14:01:53.772Z,6.37
2023-03-06T14:02:58.322Z,7.37
2023-03-06T14:04:20.286Z,7.70
2023-03-06T14:05:23.206Z,9.27
2023-03-06T14:06:42.022Z,6.57
2023-03-06T14:08:01.114Z,8.73
2023-03-06T14:09:08.199Z,6.10
2023-03-06T14:10:09.934Z,6.13
2023-03-06T14:11:21.727Z,7.07
2023-03-06T14:12:33.313Z,7.00
2023-03-06T14:13:47.327Z,7.93
2023-03-06T14:14:57.470Z,6.53
2023-03-06T14:15:59.346Z,7.60
2023-03-06T14:17:05.150Z,6.23
2023-03-06T14:18:16.395Z,6.03
2023-03-06T14:19:19.400Z,6.07
2023-03-06T14:20:26.462Z,6.53
2023-03-06T14:21:41.850Z,7.73
2023-03-06T14:22:43.624Z,6.50
2023-03-06T14:23:47.196Z,5.37
2023-03-06T14:25:13.691Z,7.77
2023-03-06T14:26:23.794Z,5.53
2023-03-06T14:27:43.856Z,7.63
2023-03-06T14:28:52.522Z,7.97
2023-03-06T14:30:06.002Z,5.87
2023-03-06T14:31:13.972Z,6.17
2023-03-06T14:32:23.108Z,6.03
2023-03-06T14:33:53.487Z,7.73